Terminal Aerodrome Forecast
Issued by NWS Springfield, MO

Home | Current Version | Previous Version | Text Only | Print | Product List | Glossary On
Versions: 1 2 3 4 5 6 7 8 9 10 11 12 13 14 15 16 17 18 19 20 21
895
FTUS43 KSGF 041344 AAB
TAFSGF
TAF AMD
KSGF 041344Z 0414/0512 16006KT 4SM -RA BR FEW005 OVC025
     FM041530 25006KT P6SM VCSH OVC008
     FM041800 28008KT P6SM BKN010 BKN035
     FM042300 30005KT P6SM SCT120
     FM050800 16005KT P6SM FEW120=

USA.gov is the U.S. government's official web portal to all federal, state and local government web resources and services.